sensor_id;sensor_type;location;lat;lon;timestamp;P1;durP1;ratioP1;P2;durP2;ratioP2
1839;SDS011;920;48.944;9.148;2022-11-20T00:00:15;9.50;;;6.70;;
1839;SDS011;920;48.944;9.148;2022-11-20T00:02:42;9.33;;;6.30;;
1839;SDS011;920;48.944;9.148;2022-11-20T00:05:09;10.00;;;7.40;;
1839;SDS011;920;48.944;9.148;2022-11-20T00:07:37;9.83;;;7.27;;
1839;SDS011;920;48.944;9.148;2022-11-20T00:10:04;12.27;;;7.33;;
1839;SDS011;920;48.944;9.148;2022-11-20T00:12:31;10.70;;;7.90;;
1839;SDS011;920;48.944;9.148;2022-11-20T00:14:58;9.47;;;6.90;;
1839;SDS011;920;48.944;9.148;2022-11-20T00:17:24;8.90;;;6.90;;
1839;SDS011;920;48.944;9.148;2022-11-20T00:19:51;9.37;;;6.80;;
1839;SDS011;920;48.944;9.148;2022-11-20T00:22:17;10.37;;;7.50;;
1839;SDS011;920;48.944;9.148;2022-11-20T00:24:47;8.70;;;6.57;;
1839;SDS011;920;48.944;9.148;2022-11-20T00:27:14;9.70;;;6.50;;
1839;SDS011;920;48.944;9.148;2022-11-20T00:29:40;8.83;;;6.63;;
1839;SDS011;920;48.944;9.148;2022-11-20T00:32:07;9.13;;;6.47;;
1839;SDS011;920;48.944;9.148;2022-11-20T00:34:33;9.20;;;7.10;;
1839;SDS011;920;48.944;9.148;2022-11-20T00:37:00;9.90;;;7.53;;
1839;SDS011;920;48.944;9.148;2022-11-20T00:39:26;9.67;;;7.20;;
1839;SDS011;920;48.944;9.148;2022-11-20T00:41:54;8.27;;;6.33;;
1839;SDS011;920;48.944;9.148;2022-11-20T00:44:21;10.33;;;7.30;;
1839;SDS011;920;48.944;9.148;2022-11-20T00:46:48;9.60;;;7.07;;
1839;SDS011;920;48.944;9.148;2022-11-20T00:49:14;9.10;;;6.80;;
1839;SDS011;920;48.944;9.148;2022-11-20T00:51:41;8.87;;;7.00;;
1839;SDS011;920;48.944;9.148;2022-11-20T00:54:08;9.37;;;7.13;;
1839;SDS011;920;48.944;9.148;2022-11-20T00:56:37;9.47;;;6.87;;
1839;SDS011;920;48.944;9.148;2022-11-20T00:59:08;7.43;;;5.87;;
1839;SDS011;920;48.944;9.148;2022-11-20T01:01:35;10.60;;;6.90;;
1839;SDS011;920;48.944;9.148;2022-11-20T01:04:02;11.70;;;7.57;;
1839;SDS011;920;48.944;9.148;2022-11-20T01:06:29;11.70;;;7.40;;
1839;SDS011;920;48.944;9.148;2022-11-20T01:08:57;9.63;;;7.53;;
1839;SDS011;920;48.944;9.148;2022-11-20T01:11:26;8.90;;;6.67;;
1839;SDS011;920;48.944;9.148;2022-11-20T01:13:54;8.57;;;6.73;;
1839;SDS011;920;48.944;9.148;2022-11-20T01:16:23;9.53;;;7.40;;
1839;SDS011;920;48.944;9.148;2022-11-20T01:18:52;9.33;;;7.80;;
1839;SDS011;920;48.944;9.148;2022-11-20T01:21:19;9.57;;;7.13;;
1839;SDS011;920;48.944;9.148;2022-11-20T01:23:47;10.07;;;7.70;;
1839;SDS011;920;48.944;9.148;2022-11-20T01:26:15;9.80;;;7.43;;
1839;SDS011;920;48.944;9.148;2022-11-20T01:28:43;8.20;;;6.60;;
1839;SDS011;920;48.944;9.148;2022-11-20T01:31:10;10.17;;;7.50;;
1839;SDS011;920;48.944;9.148;2022-11-20T01:33:40;10.70;;;8.30;;
1839;SDS011;920;48.944;9.148;2022-11-20T01:36:07;9.43;;;7.00;;
1839;SDS011;920;48.944;9.148;2022-11-20T01:38:35;9.83;;;7.97;;
1839;SDS011;920;48.944;9.148;2022-11-20T01:41:01;12.10;;;8.50;;
1839;SDS011;920;48.944;9.148;2022-11-20T01:43:28;12.13;;;8.47;;
1839;SDS011;920;48.944;9.148;2022-11-20T01:48:47;11.70;;;7.90;;
1839;SDS011;920;48.944;9.148;2022-11-20T01:51:19;8.73;;;7.40;;
1839;SDS011;920;48.944;9.148;2022-11-20T01:53:50;9.20;;;7.60;;
1839;SDS011;920;48.944;9.148;2022-11-20T01:56:18;10.30;;;8.13;;
1839;SDS011;920;48.944;9.148;2022-11-20T01:58:45;11.73;;;8.37;;
1839;SDS011;920;48.944;9.148;2022-11-20T02:01:14;7.93;;;6.60;;
1839;SDS011;920;48.944;9.148;2022-11-20T02:03:42;9.80;;;7.30;;
1839;SDS011;920;48.944;9.148;2022-11-20T02:06:11;8.57;;;6.83;;
1839;SDS011;920;48.944;9.148;2022-11-20T02:08:40;10.60;;;7.40;;
1839;SDS011;920;48.944;9.148;2022-11-20T02:11:07;10.40;;;7.33;;
1839;SDS011;920;48.944;9.148;2022-11-20T02:13:34;9.67;;;7.23;;
1839;SDS011;920;48.944;9.148;2022-11-20T02:16:14;10.03;;;8.33;;
1839;SDS011;920;48.944;9.148;2022-11-20T02:18:42;10.03;;;7.60;;
1839;SDS011;920;48.944;9.148;2022-11-20T02:21:14;8.40;;;7.17;;
1839;SDS011;920;48.944;9.148;2022-11-20T02:26:44;11.30;;;8.20;;
1839;SDS011;920;48.944;9.148;2022-11-20T02:29:13;9.80;;;7.50;;
1839;SDS011;920;48.944;9.148;2022-11-20T02:31:42;8.40;;;6.77;;
1839;SDS011;920;48.944;9.148;2022-11-20T02:34:09;8.70;;;7.10;;
1839;SDS011;920;48.944;9.148;2022-11-20T02:36:36;10.47;;;7.57;;
1839;SDS011;920;48.944;9.148;2022-11-20T02:39:04;10.43;;;7.27;;
1839;SDS011;920;48.944;9.148;2022-11-20T02:41:34;8.30;;;6.80;;
1839;SDS011;920;48.944;9.148;2022-11-20T02:44:01;11.07;;;8.50;;
1839;SDS011;920;48.944;9.148;2022-11-20T02:46:29;9.73;;;7.87;;
1839;SDS011;920;48.944;9.148;2022-11-20T02:48:56;10.13;;;7.70;;
1839;SDS011;920;48.944;9.148;2022-11-20T02:51:22;9.60;;;6.67;;
1839;SDS011;920;48.944;9.148;2022-11-20T02:53:49;11.10;;;7.00;;
1839;SDS011;920;48.944;9.148;2022-11-20T02:56:16;10.90;;;6.87;;
1839;SDS011;920;48.944;9.148;2022-11-20T02:58:44;8.73;;;7.00;;
1839;SDS011;920;48.944;9.148;2022-11-20T03:01:10;9.70;;;6.70;;
1839;SDS011;920;48.944;9.148;2022-11-20T03:03:37;9.67;;;7.00;;
1839;SDS011;920;48.944;9.148;2022-11-20T03:06:04;10.00;;;7.30;;
1839;SDS011;920;48.944;9.148;2022-11-20T03:08:31;8.83;;;7.30;;
1839;SDS011;920;48.944;9.148;2022-11-20T03:11:01;9.57;;;7.10;;
1839;SDS011;920;48.944;9.148;2022-11-20T03:13:28;9.60;;;7.13;;
1839;SDS011;920;48.944;9.148;2022-11-20T03:15:56;7.53;;;6.10;;
1839;SDS011;920;48.944;9.148;2022-11-20T03:18:23;7.03;;;5.40;;
1839;SDS011;920;48.944;9.148;2022-11-20T03:20:50;4.93;;;3.90;;
1839;SDS011;920;48.944;9.148;2022-11-20T03:23:22;4.93;;;4.20;;
1839;SDS011;920;48.944;9.148;2022-11-20T03:25:49;3.57;;;3.17;;
1839;SDS011;920;48.944;9.148;2022-11-20T03:28:15;5.03;;;3.10;;
1839;SDS011;920;48.944;9.148;2022-11-20T03:30:42;3.43;;;3.13;;
1839;SDS011;920;48.944;9.148;2022-11-20T03:33:10;3.77;;;3.00;;
1839;SDS011;920;48.944;9.148;2022-11-20T03:35:37;3.50;;;3.00;;
1839;SDS011;920;48.944;9.148;2022-11-20T03:38:03;3.20;;;2.60;;
1839;SDS011;920;48.944;9.148;2022-11-20T03:40:30;3.63;;;2.70;;
1839;SDS011;920;48.944;9.148;2022-11-20T03:42:57;3.40;;;2.90;;
1839;SDS011;920;48.944;9.148;2022-11-20T03:45:23;2.60;;;2.30;;
1839;SDS011;920;48.944;9.148;2022-11-20T03:47:50;2.47;;;2.27;;
1839;SDS011;920;48.944;9.148;2022-11-20T03:50:18;3.23;;;2.70;;
1839;SDS011;920;48.944;9.148;2022-11-20T03:52:45;3.23;;;2.57;;
1839;SDS011;920;48.944;9.148;2022-11-20T03:55:11;3.37;;;2.43;;
1839;SDS011;920;48.944;9.148;2022-11-20T03:57:38;3.80;;;2.87;;
1839;SDS011;920;48.944;9.148;2022-11-20T04:00:05;3.17;;;2.57;;
1839;SDS011;920;48.944;9.148;2022-11-20T04:02:32;3.30;;;2.70;;
1839;SDS011;920;48.944;9.148;2022-11-20T04:04:59;2.90;;;2.50;;
1839;SDS011;920;48.944;9.148;2022-11-20T04:07:27;2.50;;;2.30;;
1839;SDS011;920;48.944;9.148;2022-11-20T04:09:53;5.47;;;2.57;;
1839;SDS011;920;48.944;9.148;2022-11-20T04:12:20;4.53;;;2.63;;
1839;SDS011;920;48.944;9.148;2022-11-20T04:14:47;2.80;;;2.33;;
1839;SDS011;920;48.944;9.148;2022-11-20T04:17:13;3.37;;;2.60;;
1839;SDS011;920;48.944;9.148;2022-11-20T04:19:40;2.90;;;2.60;;
1839;SDS011;920;48.944;9.148;2022-11-20T04:22:07;2.77;;;2.50;;
1839;SDS011;920;48.944;9.148;2022-11-20T04:24:35;3.10;;;2.53;;
1839;SDS011;920;48.944;9.148;2022-11-20T04:27:01;3.30;;;2.80;;
1839;SDS011;920;48.944;9.148;2022-11-20T04:29:28;3.70;;;2.47;;
1839;SDS011;920;48.944;9.148;2022-11-20T04:31:54;2.83;;;2.50;;
1839;SDS011;920;48.944;9.148;2022-11-20T04:34:21;4.07;;;2.50;;
1839;SDS011;920;48.944;9.148;2022-11-20T04:36:48;3.40;;;2.60;;
1839;SDS011;920;48.944;9.148;2022-11-20T04:39:15;3.10;;;2.37;;
1839;SDS011;920;48.944;9.148;2022-11-20T04:41:43;3.50;;;2.80;;
1839;SDS011;920;48.944;9.148;2022-11-20T04:44:10;2.60;;;2.30;;
1839;SDS011;920;48.944;9.148;2022-11-20T04:46:37;3.00;;;2.60;;
1839;SDS011;920;48.944;9.148;2022-11-20T04:49:05;3.50;;;2.70;;
1839;SDS011;920;48.944;9.148;2022-11-20T04:51:32;2.80;;;2.50;;
1839;SDS011;920;48.944;9.148;2022-11-20T04:53:59;2.63;;;2.30;;
1839;SDS011;920;48.944;9.148;2022-11-20T04:56:25;3.20;;;2.67;;
1839;SDS011;920;48.944;9.148;2022-11-20T04:58:53;5.03;;;3.53;;
1839;SDS011;920;48.944;9.148;2022-11-20T05:01:21;2.73;;;2.40;;
1839;SDS011;920;48.944;9.148;2022-11-20T05:03:48;3.10;;;2.70;;
1839;SDS011;920;48.944;9.148;2022-11-20T05:06:16;3.23;;;2.77;;
1839;SDS011;920;48.944;9.148;2022-11-20T05:08:44;3.13;;;2.20;;
1839;SDS011;920;48.944;9.148;2022-11-20T05:11:11;5.63;;;2.87;;
1839;SDS011;920;48.944;9.148;2022-11-20T05:13:38;3.30;;;3.00;;
1839;SDS011;920;48.944;9.148;2022-11-20T05:16:07;4.70;;;3.10;;
1839;SDS011;920;48.944;9.148;2022-11-20T05:18:34;3.20;;;2.57;;
1839;SDS011;920;48.944;9.148;2022-11-20T05:21:01;3.20;;;2.67;;
1839;SDS011;920;48.944;9.148;2022-11-20T05:23:29;3.00;;;2.50;;
1839;SDS011;920;48.944;9.148;2022-11-20T05:25:57;3.00;;;2.70;;
1839;SDS011;920;48.944;9.148;2022-11-20T05:28:24;3.87;;;2.60;;
1839;SDS011;920;48.944;9.148;2022-11-20T05:30:51;2.87;;;2.50;;
1839;SDS011;920;48.944;9.148;2022-11-20T05:33:19;3.20;;;2.70;;
1839;SDS011;920;48.944;9.148;2022-11-20T05:35:46;6.23;;;2.93;;
1839;SDS011;920;48.944;9.148;2022-11-20T05:38:13;3.87;;;2.70;;
1839;SDS011;920;48.944;9.148;2022-11-20T05:40:40;3.30;;;2.70;;
1839;SDS011;920;48.944;9.148;2022-11-20T05:43:06;3.70;;;2.63;;
1839;SDS011;920;48.944;9.148;2022-11-20T05:45:33;3.57;;;2.90;;
1839;SDS011;920;48.944;9.148;2022-11-20T05:48:00;3.13;;;2.83;;
1839;SDS011;920;48.944;9.148;2022-11-20T05:50:28;2.93;;;2.50;;
1839;SDS011;920;48.944;9.148;2022-11-20T05:52:55;2.90;;;2.60;;
1839;SDS011;920;48.944;9.148;2022-11-20T05:55:24;2.93;;;2.50;;
1839;SDS011;920;48.944;9.148;2022-11-20T05:57:51;3.90;;;2.70;;
1839;SDS011;920;48.944;9.148;2022-11-20T06:00:18;3.53;;;2.40;;
1839;SDS011;920;48.944;9.148;2022-11-20T06:02:45;3.83;;;2.60;;
1839;SDS011;920;48.944;9.148;2022-11-20T06:05:12;2.83;;;2.33;;
1839;SDS011;920;48.944;9.148;2022-11-20T06:07:40;2.90;;;2.30;;
1839;SDS011;920;48.944;9.148;2022-11-20T06:10:06;2.30;;;2.00;;
1839;SDS011;920;48.944;9.148;2022-11-20T06:12:33;2.80;;;2.30;;
1839;SDS011;920;48.944;9.148;2022-11-20T06:15:00;3.23;;;2.30;;
1839;SDS011;920;48.944;9.148;2022-11-20T06:17:26;2.80;;;2.30;;
1839;SDS011;920;48.944;9.148;2022-11-20T06:19:53;3.10;;;2.07;;
1839;SDS011;920;48.944;9.148;2022-11-20T06:22:20;3.03;;;2.30;;
1839;SDS011;920;48.944;9.148;2022-11-20T06:24:48;2.60;;;2.27;;
1839;SDS011;920;48.944;9.148;2022-11-20T06:27:15;2.60;;;2.40;;
1839;SDS011;920;48.944;9.148;2022-11-20T06:29:41;2.90;;;2.43;;
1839;SDS011;920;48.944;9.148;2022-11-20T06:32:08;3.30;;;2.43;;
1839;SDS011;920;48.944;9.148;2022-11-20T06:34:35;3.63;;;2.43;;
1839;SDS011;920;48.944;9.148;2022-11-20T06:37:02;3.30;;;2.90;;
1839;SDS011;920;48.944;9.148;2022-11-20T06:39:28;2.53;;;2.33;;
1839;SDS011;920;48.944;9.148;2022-11-20T06:41:56;3.40;;;2.37;;
1839;SDS011;920;48.944;9.148;2022-11-20T06:44:23;4.10;;;2.60;;
1839;SDS011;920;48.944;9.148;2022-11-20T06:46:50;2.60;;;2.40;;
1839;SDS011;920;48.944;9.148;2022-11-20T06:49:16;2.63;;;2.30;;
1839;SDS011;920;48.944;9.148;2022-11-20T06:51:43;2.50;;;2.30;;
1839;SDS011;920;48.944;9.148;2022-11-20T06:54:09;3.60;;;2.73;;
1839;SDS011;920;48.944;9.148;2022-11-20T06:56:36;4.37;;;2.70;;
1839;SDS011;920;48.944;9.148;2022-11-20T06:59:05;2.70;;;2.40;;
1839;SDS011;920;48.944;9.148;2022-11-20T07:01:32;2.70;;;2.23;;
1839;SDS011;920;48.944;9.148;2022-11-20T07:03:58;2.03;;;1.83;;
1839;SDS011;920;48.944;9.148;2022-11-20T07:06:25;3.50;;;2.60;;
1839;SDS011;920;48.944;9.148;2022-11-20T07:08:52;3.37;;;2.27;;
1839;SDS011;920;48.944;9.148;2022-11-20T07:11:18;3.50;;;2.53;;
1839;SDS011;920;48.944;9.148;2022-11-20T07:13:45;2.90;;;2.60;;
1839;SDS011;920;48.944;9.148;2022-11-20T07:16:13;3.00;;;2.67;;
1839;SDS011;920;48.944;9.148;2022-11-20T07:18:40;3.40;;;2.70;;
1839;SDS011;920;48.944;9.148;2022-11-20T07:21:08;2.63;;;2.27;;
1839;SDS011;920;48.944;9.148;2022-11-20T07:23:35;2.33;;;2.13;;
1839;SDS011;920;48.944;9.148;2022-11-20T07:26:03;2.90;;;2.60;;
1839;SDS011;920;48.944;9.148;2022-11-20T07:28:30;2.63;;;2.30;;
1839;SDS011;920;48.944;9.148;2022-11-20T07:30:56;3.10;;;2.67;;
1839;SDS011;920;48.944;9.148;2022-11-20T07:33:25;5.50;;;2.80;;
1839;SDS011;920;48.944;9.148;2022-11-20T07:35:51;4.73;;;2.90;;
1839;SDS011;920;48.944;9.148;2022-11-20T07:38:18;2.90;;;2.20;;
1839;SDS011;920;48.944;9.148;2022-11-20T07:40:44;3.27;;;2.90;;
1839;SDS011;920;48.944;9.148;2022-11-20T07:43:11;4.77;;;3.70;;
1839;SDS011;920;48.944;9.148;2022-11-20T07:45:38;6.17;;;4.40;;
1839;SDS011;920;48.944;9.148;2022-11-20T07:48:05;4.80;;;4.30;;
1839;SDS011;920;48.944;9.148;2022-11-20T07:50:33;7.13;;;6.43;;
1839;SDS011;920;48.944;9.148;2022-11-20T07:53:00;6.10;;;5.50;;
1839;SDS011;920;48.944;9.148;2022-11-20T07:55:28;5.37;;;4.70;;
1839;SDS011;920;48.944;9.148;2022-11-20T07:57:54;6.23;;;5.37;;
1839;SDS011;920;48.944;9.148;2022-11-20T08:00:22;3.97;;;3.57;;
1839;SDS011;920;48.944;9.148;2022-11-20T08:02:49;3.97;;;3.57;;
1839;SDS011;920;48.944;9.148;2022-11-20T08:05:15;3.90;;;3.30;;
1839;SDS011;920;48.944;9.148;2022-11-20T08:07:44;4.10;;;3.10;;
1839;SDS011;920;48.944;9.148;2022-11-20T08:10:11;3.50;;;3.10;;
1839;SDS011;920;48.944;9.148;2022-11-20T08:12:43;4.23;;;3.83;;
1839;SDS011;920;48.944;9.148;2022-11-20T08:15:27;5.70;;;5.03;;
1839;SDS011;920;48.944;9.148;2022-11-20T08:17:58;9.23;;;6.00;;
1839;SDS011;920;48.944;9.148;2022-11-20T08:20:25;8.53;;;5.60;;
1839;SDS011;920;48.944;9.148;2022-11-20T08:22:56;8.37;;;6.43;;
1839;SDS011;920;48.944;9.148;2022-11-20T08:25:24;7.17;;;5.37;;
1839;SDS011;920;48.944;9.148;2022-11-20T08:27:51;8.40;;;6.00;;
1839;SDS011;920;48.944;9.148;2022-11-20T08:30:18;6.57;;;5.60;;
1839;SDS011;920;48.944;9.148;2022-11-20T08:32:47;7.43;;;5.53;;
1839;SDS011;920;48.944;9.148;2022-11-20T08:35:14;5.37;;;3.77;;
1839;SDS011;920;48.944;9.148;2022-11-20T08:37:41;4.60;;;3.50;;
1839;SDS011;920;48.944;9.148;2022-11-20T08:40:10;2.90;;;2.23;;
1839;SDS011;920;48.944;9.148;2022-11-20T08:42:45;2.50;;;1.90;;
1839;SDS011;920;48.944;9.148;2022-11-20T08:45:12;2.10;;;1.63;;
1839;SDS011;920;48.944;9.148;2022-11-20T08:47:39;2.47;;;1.60;;
1839;SDS011;920;48.944;9.148;2022-11-20T08:50:06;1.60;;;1.30;;
1839;SDS011;920;48.944;9.148;2022-11-20T08:52:33;1.97;;;1.33;;
1839;SDS011;920;48.944;9.148;2022-11-20T08:55:00;4.17;;;1.60;;
1839;SDS011;920;48.944;9.148;2022-11-20T08:57:28;1.77;;;1.27;;
1839;SDS011;920;48.944;9.148;2022-11-20T08:59:57;1.90;;;1.37;;
1839;SDS011;920;48.944;9.148;2022-11-20T09:02:24;1.70;;;1.17;;
1839;SDS011;920;48.944;9.148;2022-11-20T09:04:51;1.90;;;1.70;;
1839;SDS011;920;48.944;9.148;2022-11-20T09:07:18;1.57;;;1.20;;
1839;SDS011;920;48.944;9.148;2022-11-20T09:09:45;1.80;;;1.10;;
1839;SDS011;920;48.944;9.148;2022-11-20T09:12:12;1.60;;;1.17;;
1839;SDS011;920;48.944;9.148;2022-11-20T09:14:40;2.30;;;1.20;;
1839;SDS011;920;48.944;9.148;2022-11-20T09:17:06;1.53;;;1.20;;
1839;SDS011;920;48.944;9.148;2022-11-20T09:19:34;2.00;;;1.50;;
1839;SDS011;920;48.944;9.148;2022-11-20T09:22:00;5.33;;;1.40;;
1839;SDS011;920;48.944;9.148;2022-11-20T09:24:27;2.17;;;1.30;;
1839;SDS011;920;48.944;9.148;2022-11-20T09:26:54;2.37;;;2.00;;
1839;SDS011;920;48.944;9.148;2022-11-20T09:29:20;1.80;;;1.47;;
1839;SDS011;920;48.944;9.148;2022-11-20T09:31:48;1.60;;;1.23;;
1839;SDS011;920;48.944;9.148;2022-11-20T09:34:15;1.90;;;1.20;;
1839;SDS011;920;48.944;9.148;2022-11-20T09:36:42;3.10;;;1.83;;
1839;SDS011;920;48.944;9.148;2022-11-20T09:39:09;2.07;;;1.43;;
1839;SDS011;920;48.944;9.148;2022-11-20T09:41:39;1.67;;;1.20;;
1839;SDS011;920;48.944;9.148;2022-11-20T09:44:25;2.30;;;1.30;;
1839;SDS011;920;48.944;9.148;2022-11-20T09:47:01;1.97;;;1.47;;
1839;SDS011;920;48.944;9.148;2022-11-20T09:49:32;2.20;;;1.60;;
1839;SDS011;920;48.944;9.148;2022-11-20T09:52:07;3.27;;;1.80;;
1839;SDS011;920;48.944;9.148;2022-11-20T09:54:40;2.60;;;2.33;;
1839;SDS011;920;48.944;9.148;2022-11-20T09:57:10;3.50;;;2.27;;
1839;SDS011;920;48.944;9.148;2022-11-20T09:59:38;2.60;;;2.40;;
1839;SDS011;920;48.944;9.148;2022-11-20T10:02:14;2.10;;;1.63;;
1839;SDS011;920;48.944;9.148;2022-11-20T10:04:53;2.70;;;1.90;;
1839;SDS011;920;48.944;9.148;2022-11-20T10:07:23;2.30;;;2.10;;
1839;SDS011;920;48.944;9.148;2022-11-20T10:09:52;3.77;;;2.60;;
1839;SDS011;920;48.944;9.148;2022-11-20T10:12:22;2.13;;;1.90;;
1839;SDS011;920;48.944;9.148;2022-11-20T10:15:05;3.43;;;2.00;;
1839;SDS011;920;48.944;9.148;2022-11-20T10:17:46;2.73;;;2.30;;
1839;SDS011;920;48.944;9.148;2022-11-20T10:20:23;3.67;;;2.30;;
1839;SDS011;920;48.944;9.148;2022-11-20T10:22:59;4.07;;;2.87;;
1839;SDS011;920;48.944;9.148;2022-11-20T10:25:33;4.23;;;2.20;;
1839;SDS011;920;48.944;9.148;2022-11-20T10:28:10;2.20;;;1.90;;
1839;SDS011;920;48.944;9.148;2022-11-20T10:30:43;3.73;;;1.87;;
1839;SDS011;920;48.944;9.148;2022-11-20T10:33:13;2.07;;;1.60;;
1839;SDS011;920;48.944;9.148;2022-11-20T10:35:42;2.27;;;1.63;;
1839;SDS011;920;48.944;9.148;2022-11-20T10:38:13;1.80;;;1.40;;
1839;SDS011;920;48.944;9.148;2022-11-20T10:40:44;2.03;;;1.50;;
1839;SDS011;920;48.944;9.148;2022-11-20T10:43:13;1.80;;;1.50;;
1839;SDS011;920;48.944;9.148;2022-11-20T10:45:48;1.93;;;1.63;;
1839;SDS011;920;48.944;9.148;2022-11-20T10:48:20;2.33;;;1.40;;
1839;SDS011;920;48.944;9.148;2022-11-20T10:50:55;2.27;;;1.90;;
1839;SDS011;920;48.944;9.148;2022-11-20T10:53:42;2.03;;;1.40;;
1839;SDS011;920;48.944;9.148;2022-11-20T10:56:15;2.57;;;1.70;;
1839;SDS011;920;48.944;9.148;2022-11-20T10:58:45;2.47;;;1.50;;
1839;SDS011;920;48.944;9.148;2022-11-20T11:01:19;3.00;;;1.80;;
1839;SDS011;920;48.944;9.148;2022-11-20T11:03:49;3.40;;;2.10;;
1839;SDS011;920;48.944;9.148;2022-11-20T11:06:19;2.23;;;1.60;;
1839;SDS011;920;48.944;9.148;2022-11-20T11:08:48;2.13;;;1.90;;
1839;SDS011;920;48.944;9.148;2022-11-20T11:11:20;3.10;;;2.00;;
1839;SDS011;920;48.944;9.148;2022-11-20T11:13:48;3.80;;;2.53;;
1839;SDS011;920;48.944;9.148;2022-11-20T11:16:22;2.10;;;1.80;;
1839;SDS011;920;48.944;9.148;2022-11-20T11:18:51;2.90;;;2.50;;
1839;SDS011;920;48.944;9.148;2022-11-20T11:21:21;2.60;;;2.00;;
1839;SDS011;920;48.944;9.148;2022-11-20T11:23:57;3.80;;;2.90;;
1839;SDS011;920;48.944;9.148;2022-11-20T11:26:25;5.27;;;2.50;;
1839;SDS011;920;48.944;9.148;2022-11-20T11:28:53;3.93;;;2.47;;
1839;SDS011;920;48.944;9.148;2022-11-20T11:31:24;2.77;;;2.20;;
1839;SDS011;920;48.944;9.148;2022-11-20T11:34:02;2.83;;;2.47;;
1839;SDS011;920;48.944;9.148;2022-11-20T11:36:30;3.40;;;2.50;;
1839;SDS011;920;48.944;9.148;2022-11-20T11:38:58;2.80;;;2.37;;
1839;SDS011;920;48.944;9.148;2022-11-20T11:41:28;5.10;;;3.00;;
1839;SDS011;920;48.944;9.148;2022-11-20T11:43:57;3.50;;;2.40;;
1839;SDS011;920;48.944;9.148;2022-11-20T11:46:49;3.87;;;2.23;;
1839;SDS011;920;48.944;9.148;2022-11-20T11:49:19;3.30;;;2.00;;
1839;SDS011;920;48.944;9.148;2022-11-20T11:51:50;3.33;;;1.90;;
1839;SDS011;920;48.944;9.148;2022-11-20T11:54:26;3.10;;;2.33;;
1839;SDS011;920;48.944;9.148;2022-11-20T11:56:58;3.67;;;2.23;;
1839;SDS011;920;48.944;9.148;2022-11-20T11:59:28;3.63;;;2.10;;
1839;SDS011;920;48.944;9.148;2022-11-20T12:02:01;2.90;;;1.97;;
1839;SDS011;920;48.944;9.148;2022-11-20T12:04:37;2.80;;;2.10;;
1839;SDS011;920;48.944;9.148;2022-11-20T12:07:10;3.87;;;2.00;;
1839;SDS011;920;48.944;9.148;2022-11-20T12:09:38;3.90;;;1.93;;
1839;SDS011;920;48.944;9.148;2022-11-20T12:12:08;2.70;;;2.13;;
1839;SDS011;920;48.944;9.148;2022-11-20T12:14:37;4.70;;;2.43;;
1839;SDS011;920;48.944;9.148;2022-11-20T12:17:05;2.80;;;2.30;;
1839;SDS011;920;48.944;9.148;2022-11-20T12:19:33;3.20;;;1.97;;
1839;SDS011;920;48.944;9.148;2022-11-20T12:22:04;5.07;;;2.13;;
1839;SDS011;920;48.944;9.148;2022-11-20T12:24:42;2.30;;;1.80;;
1839;SDS011;920;48.944;9.148;2022-11-20T12:27:31;3.70;;;2.10;;
1839;SDS011;920;48.944;9.148;2022-11-20T12:30:14;2.40;;;1.70;;
1839;SDS011;920;48.944;9.148;2022-11-20T12:32:46;3.30;;;1.77;;
1839;SDS011;920;48.944;9.148;2022-11-20T12:35:29;2.53;;;1.70;;
1839;SDS011;920;48.944;9.148;2022-11-20T12:38:07;2.53;;;1.77;;
1839;SDS011;920;48.944;9.148;2022-11-20T12:40:45;2.67;;;1.60;;
1839;SDS011;920;48.944;9.148;2022-11-20T12:43:15;3.00;;;1.63;;
1839;SDS011;920;48.944;9.148;2022-11-20T12:46:06;2.70;;;1.30;;
1839;SDS011;920;48.944;9.148;2022-11-20T12:51:21;2.27;;;1.57;;
1839;SDS011;920;48.944;9.148;2022-11-20T12:54:02;2.67;;;1.60;;
1839;SDS011;920;48.944;9.148;2022-11-20T12:56:39;3.10;;;2.10;;
1839;SDS011;920;48.944;9.148;2022-11-20T12:59:16;3.40;;;1.83;;
1839;SDS011;920;48.944;9.148;2022-11-20T13:01:51;3.43;;;1.50;;
1839;SDS011;920;48.944;9.148;2022-11-20T13:04:25;2.57;;;1.70;;
1839;SDS011;920;48.944;9.148;2022-11-20T13:06:59;5.90;;;1.60;;
1839;SDS011;920;48.944;9.148;2022-11-20T13:09:29;3.80;;;2.10;;
1839;SDS011;920;48.944;9.148;2022-11-20T13:11:58;4.60;;;2.07;;
1839;SDS011;920;48.944;9.148;2022-11-20T13:14:31;2.00;;;1.40;;
1839;SDS011;920;48.944;9.148;2022-11-20T13:17:04;2.63;;;1.70;;
1839;SDS011;920;48.944;9.148;2022-11-20T13:19:32;3.80;;;1.60;;
1839;SDS011;920;48.944;9.148;2022-11-20T13:21:59;2.20;;;1.40;;
1839;SDS011;920;48.944;9.148;2022-11-20T13:24:27;4.00;;;1.70;;
1839;SDS011;920;48.944;9.148;2022-11-20T13:26:59;4.30;;;2.20;;
1839;SDS011;920;48.944;9.148;2022-11-20T13:29:27;3.17;;;1.37;;
1839;SDS011;920;48.944;9.148;2022-11-20T13:32:01;2.03;;;1.23;;
1839;SDS011;920;48.944;9.148;2022-11-20T13:34:29;2.47;;;1.30;;
1839;SDS011;920;48.944;9.148;2022-11-20T13:36:57;2.37;;;1.40;;
1839;SDS011;920;48.944;9.148;2022-11-20T13:39:31;2.53;;;1.20;;
1839;SDS011;920;48.944;9.148;2022-11-20T13:41:59;2.83;;;1.57;;
1839;SDS011;920;48.944;9.148;2022-11-20T13:44:28;2.13;;;1.20;;
1839;SDS011;920;48.944;9.148;2022-11-20T13:46:56;3.00;;;1.30;;
1839;SDS011;920;48.944;9.148;2022-11-20T13:49:25;2.17;;;1.30;;
1839;SDS011;920;48.944;9.148;2022-11-20T13:51:55;2.57;;;1.27;;
1839;SDS011;920;48.944;9.148;2022-11-20T13:54:49;2.50;;;1.27;;
1839;SDS011;920;48.944;9.148;2022-11-20T14:00:25;2.00;;;1.20;;
1839;SDS011;920;48.944;9.148;2022-11-20T14:02:58;2.27;;;1.60;;
1839;SDS011;920;48.944;9.148;2022-11-20T14:05:27;2.13;;;1.10;;
1839;SDS011;920;48.944;9.148;2022-11-20T14:07:55;2.80;;;1.70;;
1839;SDS011;920;48.944;9.148;2022-11-20T14:10:25;1.97;;;1.20;;
1839;SDS011;920;48.944;9.148;2022-11-20T14:12:52;6.23;;;4.13;;
1839;SDS011;920;48.944;9.148;2022-11-20T14:15:24;5.33;;;3.67;;
1839;SDS011;920;48.944;9.148;2022-11-20T14:17:52;6.60;;;3.90;;
1839;SDS011;920;48.944;9.148;2022-11-20T14:20:18;5.60;;;3.50;;
1839;SDS011;920;48.944;9.148;2022-11-20T14:22:48;3.80;;;2.47;;
1839;SDS011;920;48.944;9.148;2022-11-20T14:25:19;7.00;;;5.47;;
1839;SDS011;920;48.944;9.148;2022-11-20T14:27:51;7.97;;;5.87;;
1839;SDS011;920;48.944;9.148;2022-11-20T14:30:20;4.33;;;2.10;;
1839;SDS011;920;48.944;9.148;2022-11-20T14:32:48;8.50;;;6.13;;
1839;SDS011;920;48.944;9.148;2022-11-20T14:35:17;4.10;;;3.03;;
1839;SDS011;920;48.944;9.148;2022-11-20T14:37:46;10.17;;;6.80;;
1839;SDS011;920;48.944;9.148;2022-11-20T14:40:24;6.33;;;3.60;;
1839;SDS011;920;48.944;9.148;2022-11-20T14:42:54;4.70;;;2.80;;
1839;SDS011;920;48.944;9.148;2022-11-20T14:45:22;2.93;;;1.60;;
1839;SDS011;920;48.944;9.148;2022-11-20T14:47:49;3.43;;;2.13;;
1839;SDS011;920;48.944;9.148;2022-11-20T14:50:18;4.70;;;3.27;;
1839;SDS011;920;48.944;9.148;2022-11-20T14:52:50;7.83;;;4.23;;
1839;SDS011;920;48.944;9.148;2022-11-20T14:55:28;6.20;;;3.00;;
1839;SDS011;920;48.944;9.148;2022-11-20T14:57:58;5.00;;;2.60;;
1839;SDS011;920;48.944;9.148;2022-11-20T15:00:26;10.97;;;5.80;;
1839;SDS011;920;48.944;9.148;2022-11-20T15:02:54;12.90;;;6.77;;
1839;SDS011;920;48.944;9.148;2022-11-20T15:05:21;8.73;;;4.40;;
1839;SDS011;920;48.944;9.148;2022-11-20T15:07:50;11.37;;;7.00;;
1839;SDS011;920;48.944;9.148;2022-11-20T15:10:21;12.33;;;5.37;;
1839;SDS011;920;48.944;9.148;2022-11-20T15:12:49;7.70;;;5.13;;
1839;SDS011;920;48.944;9.148;2022-11-20T15:15:19;11.97;;;6.30;;
1839;SDS011;920;48.944;9.148;2022-11-20T15:17:47;9.30;;;5.90;;
1839;SDS011;920;48.944;9.148;2022-11-20T15:20:14;11.83;;;7.90;;
1839;SDS011;920;48.944;9.148;2022-11-20T15:22:42;11.67;;;8.40;;
1839;SDS011;920;48.944;9.148;2022-11-20T15:25:12;10.20;;;6.33;;
1839;SDS011;920;48.944;9.148;2022-11-20T15:27:40;11.03;;;7.00;;
1839;SDS011;920;48.944;9.148;2022-11-20T15:30:14;13.17;;;7.23;;
1839;SDS011;920;48.944;9.148;2022-11-20T15:32:43;12.23;;;7.43;;
1839;SDS011;920;48.944;9.148;2022-11-20T15:35:11;12.67;;;8.50;;
1839;SDS011;920;48.944;9.148;2022-11-20T15:37:38;9.63;;;7.80;;
1839;SDS011;920;48.944;9.148;2022-11-20T15:40:06;6.10;;;5.40;;
1839;SDS011;920;48.944;9.148;2022-11-20T15:42:33;5.77;;;4.40;;
1839;SDS011;920;48.944;9.148;2022-11-20T15:45:00;5.03;;;3.17;;
1839;SDS011;920;48.944;9.148;2022-11-20T15:47:28;4.40;;;2.90;;
1839;SDS011;920;48.944;9.148;2022-11-20T15:49:57;3.87;;;3.10;;